createdAt,value
2023-10-09T00:02:12.204Z,100.00
2023-10-09T00:04:43.161Z,100.00
2023-10-09T00:07:13.081Z,100.00
2023-10-09T00:09:49.711Z,100.00
2023-10-09T00:12:23.876Z,100.00
2023-10-09T00:14:57.276Z,100.00
2023-10-09T00:17:25.409Z,100.00
2023-10-09T00:19:53.582Z,100.00
2023-10-09T00:22:27.343Z,100.00
2023-10-09T00:25:11.829Z,100.00
2023-10-09T00:27:44.420Z,100.00
2023-10-09T00:30:20.096Z,100.00
2023-10-09T00:32:53.876Z,100.00
2023-10-09T00:35:41.581Z,100.00
2023-10-09T00:38:21.000Z,100.00
2023-10-09T00:40:57.969Z,100.00
2023-10-09T00:43:29.707Z,100.00
2023-10-09T00:46:26.622Z,100.00
2023-10-09T00:49:02.193Z,100.00
2023-10-09T00:51:36.775Z,100.00
2023-10-09T00:54:09.223Z,100.00
2023-10-09T00:56:40.586Z,100.00
2023-10-09T00:59:16.148Z,100.00
2023-10-09T01:01:58.265Z,100.00
2023-10-09T01:04:30.877Z,100.00
2023-10-09T01:07:31.415Z,100.00
2023-10-09T01:10:00.377Z,100.00
2023-10-09T01:12:30.182Z,100.00
2023-10-09T01:15:00.866Z,100.00
2023-10-09T01:17:37.716Z,100.00
2023-10-09T01:20:06.358Z,100.00
2023-10-09T01:22:33.791Z,100.00
2023-10-09T01:25:01.109Z,100.00
2023-10-09T01:27:33.553Z,100.00
2023-10-09T01:30:01.548Z,100.00
2023-10-09T01:32:29.151Z,100.00
2023-10-09T01:34:58.749Z,100.00
2023-10-09T01:37:32.059Z,100.00
2023-10-09T01:40:16.602Z,100.00
2023-10-09T01:42:46.890Z,100.00
2023-10-09T01:45:28.602Z,100.00
2023-10-09T01:47:56.461Z,100.00
2023-10-09T01:50:28.200Z,100.00
2023-10-09T01:52:56.698Z,100.00
2023-10-09T01:55:38.858Z,100.00
2023-10-09T01:58:18.355Z,100.00
2023-10-09T02:00:50.738Z,100.00
2023-10-09T02:03:19.689Z,100.00
2023-10-09T02:05:47.212Z,100.00
2023-10-09T02:08:16.604Z,100.00
2023-10-09T02:10:48.970Z,100.00
2023-10-09T02:13:18.383Z,100.00
2023-10-09T02:15:52.979Z,100.00
2023-10-09T02:18:24.700Z,100.00
2023-10-09T02:21:10.150Z,100.00
2023-10-09T02:23:46.444Z,100.00
2023-10-09T02:26:33.466Z,100.00
2023-10-09T02:29:01.672Z,100.00
2023-10-09T02:31:41.725Z,100.00
2023-10-09T02:34:09.832Z,100.00
2023-10-09T02:36:50.112Z,100.00
2023-10-09T02:39:26.392Z,100.00
2023-10-09T02:42:01.427Z,100.00
2023-10-09T02:44:33.713Z,100.00
2023-10-09T02:47:06.326Z,100.00
2023-10-09T02:49:35.362Z,100.00
2023-10-09T02:52:07.927Z,100.00
2023-10-09T02:54:43.022Z,100.00
2023-10-09T02:57:16.847Z,100.00
2023-10-09T02:59:46.184Z,100.00
2023-10-09T03:02:13.792Z,100.00
2023-10-09T03:04:43.013Z,100.00
2023-10-09T03:07:11.764Z,100.00
2023-10-09T03:09:39.362Z,100.00
2023-10-09T03:12:10.955Z,100.00
2023-10-09T03:14:42.665Z,100.00
2023-10-09T03:17:13.796Z,100.00
2023-10-09T03:19:44.534Z,100.00
2023-10-09T03:22:13.074Z,100.00
2023-10-09T03:24:48.791Z,100.00
2023-10-09T03:27:19.715Z,100.00
2023-10-09T03:29:54.945Z,100.00
2023-10-09T03:32:22.700Z,100.00
2023-10-09T03:34:53.017Z,100.00
2023-10-09T03:37:29.606Z,100.00
2023-10-09T03:39:56.956Z,100.00
2023-10-09T03:42:25.666Z,100.00
2023-10-09T03:44:54.665Z,100.00
2023-10-09T03:47:23.996Z,100.00
2023-10-09T03:49:55.529Z,100.00
2023-10-09T03:52:26.999Z,100.00
2023-10-09T03:54:56.133Z,100.00
2023-10-09T03:57:24.762Z,100.00
2023-10-09T03:59:53.241Z,100.00
2023-10-09T04:02:23.667Z,100.00
2023-10-09T04:04:52.344Z,100.00
2023-10-09T04:07:19.944Z,100.00
2023-10-09T04:09:49.782Z,100.00
2023-10-09T04:12:26.429Z,100.00
2023-10-09T04:15:03.376Z,100.00
2023-10-09T04:17:34.443Z,100.00
2023-10-09T04:20:20.521Z,100.00
2023-10-09T04:23:00.939Z,100.00
2023-10-09T04:25:43.288Z,100.00
2023-10-09T04:28:23.134Z,100.00
2023-10-09T04:30:57.261Z,100.00
2023-10-09T04:33:33.781Z,100.00
2023-10-09T04:36:20.611Z,100.00
2023-10-09T04:39:03.729Z,100.00
2023-10-09T04:41:52.395Z,100.00
2023-10-09T04:44:21.735Z,100.00
2023-10-09T04:47:12.063Z,100.00
2023-10-09T04:49:54.149Z,100.00
2023-10-09T04:52:30.573Z,100.00
2023-10-09T04:55:08.390Z,100.00
2023-10-09T04:57:42.999Z,100.00
2023-10-09T05:00:44.328Z,100.00
2023-10-09T05:03:13.543Z,100.00
2023-10-09T05:05:44.440Z,100.00
2023-10-09T05:08:28.957Z,100.00
2023-10-09T05:10:59.650Z,100.00
2023-10-09T05:13:42.444Z,100.00
2023-10-09T05:16:20.087Z,100.00
2023-10-09T05:19:00.861Z,100.00
2023-10-09T05:21:33.007Z,100.00
2023-10-09T05:24:14.406Z,100.00
2023-10-09T05:26:49.216Z,100.00
2023-10-09T05:29:35.359Z,100.00
2023-10-09T05:32:14.898Z,100.00
2023-10-09T05:35:00.137Z,100.00
2023-10-09T05:37:44.259Z,100.00
2023-10-09T05:40:32.288Z,100.00
2023-10-09T05:43:00.891Z,100.00
2023-10-09T05:45:51.473Z,100.00
2023-10-09T05:48:19.396Z,100.00
2023-10-09T05:51:05.608Z,100.00
2023-10-09T05:53:45.120Z,100.00
2023-10-09T05:56:31.792Z,100.00
2023-10-09T05:59:17.842Z,100.00
2023-10-09T06:02:03.346Z,100.00
2023-10-09T06:04:49.182Z,100.00
2023-10-09T06:07:24.308Z,100.00
2023-10-09T06:09:55.731Z,100.00
2023-10-09T06:12:31.353Z,100.00
2023-10-09T06:14:59.326Z,100.00
2023-10-09T06:17:32.445Z,100.00
2023-10-09T06:20:12.800Z,100.00
2023-10-09T06:22:58.196Z,100.00
2023-10-09T06:25:34.185Z,100.00
2023-10-09T06:28:02.651Z,100.00
2023-10-09T06:30:35.745Z,100.00
2023-10-09T06:33:21.115Z,100.00
2023-10-09T06:35:54.761Z,100.00
2023-10-09T06:38:34.533Z,100.00
2023-10-09T06:41:07.578Z,100.00
2023-10-09T06:43:37.838Z,100.00
2023-10-09T06:46:23.398Z,100.00
2023-10-09T06:48:57.448Z,100.00
2023-10-09T06:51:25.642Z,100.00
2023-10-09T06:53:56.462Z,100.00
2023-10-09T06:56:31.834Z,100.00
2023-10-09T06:59:09.084Z,100.00
2023-10-09T07:01:47.180Z,100.00
2023-10-09T07:04:38.219Z,100.00
2023-10-09T07:07:17.689Z,100.00
2023-10-09T07:10:05.490Z,100.00
2023-10-09T07:12:44.909Z,100.00
2023-10-09T07:15:12.968Z,100.00
2023-10-09T07:17:40.471Z,100.00
2023-10-09T07:20:15.749Z,100.00
2023-10-09T07:22:57.313Z,100.00
2023-10-09T07:25:42.054Z,100.00
2023-10-09T07:28:30.649Z,100.00
2023-10-09T07:31:01.284Z,100.00
2023-10-09T07:34:03.669Z,100.00
2023-10-09T07:36:35.707Z,100.00
2023-10-09T07:39:14.329Z,100.00
2023-10-09T07:42:05.941Z,100.00
2023-10-09T07:44:38.422Z,100.00
2023-10-09T07:47:18.411Z,100.00
2023-10-09T07:49:52.504Z,100.00
2023-10-09T07:52:22.828Z,100.00
2023-10-09T07:55:03.607Z,100.00
2023-10-09T07:57:39.700Z,100.00
2023-10-09T08:00:33.693Z,100.00
2023-10-09T08:03:01.983Z,100.00
2023-10-09T08:05:45.505Z,100.00
2023-10-09T08:08:38.196Z,100.00
2023-10-09T08:11:27.839Z,100.00
2023-10-09T08:13:58.312Z,100.00
2023-10-09T08:16:37.398Z,100.00
2023-10-09T08:19:24.634Z,100.00
2023-10-09T08:22:10.665Z,100.00
2023-10-09T08:24:42.571Z,100.00
2023-10-09T08:27:48.071Z,100.00
2023-10-09T08:30:27.422Z,100.00
2023-10-09T08:35:48.830Z,100.00
2023-10-09T08:38:28.084Z,100.00
2023-10-09T08:40:59.495Z,100.00
2023-10-09T08:43:32.186Z,100.00
2023-10-09T08:46:04.795Z,100.00
2023-10-09T08:48:33.053Z,100.00
2023-10-09T08:51:07.600Z,100.00
2023-10-09T08:53:35.602Z,100.00
2023-10-09T08:56:05.708Z,100.00
2023-10-09T08:58:38.073Z,100.00
2023-10-09T09:01:06.114Z,100.00
2023-10-09T09:03:45.464Z,100.00
2023-10-09T09:06:16.028Z,100.00
2023-10-09T09:08:45.957Z,100.00
2023-10-09T09:11:24.353Z,100.00
2023-10-09T09:13:55.260Z,100.00
2023-10-09T09:16:31.188Z,100.00
2023-10-09T09:19:09.843Z,100.00
2023-10-09T09:21:48.944Z,100.00
2023-10-09T09:24:24.909Z,100.00
2023-10-09T09:27:12.726Z,100.00
2023-10-09T09:29:42.999Z,100.00
2023-10-09T09:32:19.445Z,100.00
2023-10-09T09:34:50.566Z,100.00
2023-10-09T09:37:32.929Z,100.00
2023-10-09T09:40:02.650Z,100.00
2023-10-09T09:42:32.933Z,100.00
2023-10-09T09:45:03.581Z,100.00
2023-10-09T09:47:37.031Z,100.00
2023-10-09T09:50:14.829Z,100.00
2023-10-09T09:52:42.206Z,100.00
2023-10-09T09:55:23.373Z,100.00
2023-10-09T09:57:53.193Z,100.00
2023-10-09T10:00:44.163Z,100.00
2023-10-09T10:03:20.815Z,100.00
2023-10-09T10:05:51.801Z,99.48
2023-10-09T10:08:21.832Z,98.14
2023-10-09T10:10:59.427Z,99.08
2023-10-09T10:13:42.112Z,98.82
2023-10-09T10:16:20.331Z,97.48
2023-10-09T10:19:01.304Z,94.99
2023-10-09T10:21:41.179Z,91.64
2023-10-09T10:24:30.060Z,88.49
2023-10-09T10:27:46.145Z,86.01
2023-10-09T10:30:19.883Z,86.21
2023-10-09T10:32:53.688Z,86.93
2023-10-09T10:35:33.380Z,84.29
2023-10-09T10:38:12.681Z,83.42
2023-10-09T10:40:41.648Z,79.23
2023-10-09T10:43:33.452Z,79.38
2023-10-09T10:46:27.317Z,80.16
2023-10-09T10:49:01.602Z,76.75
2023-10-09T10:51:41.692Z,76.37
2023-10-09T10:54:28.699Z,73.73
2023-10-09T10:56:58.930Z,75.64
2023-10-09T10:59:30.463Z,75.03
2023-10-09T11:01:58.757Z,70.93
2023-10-09T11:04:48.210Z,71.23
2023-10-09T11:07:25.773Z,71.42
2023-10-09T11:10:17.545Z,69.97
2023-10-09T11:12:46.701Z,69.08
2023-10-09T11:15:23.883Z,67.28
2023-10-09T11:18:28.182Z,69.16
2023-10-09T11:21:17.723Z,68.00
2023-10-09T11:23:54.277Z,65.02
2023-10-09T11:26:29.509Z,63.88
2023-10-09T11:29:14.921Z,64.45
2023-10-09T11:32:02.334Z,61.56
2023-10-09T11:34:30.959Z,61.65
2023-10-09T11:37:02.471Z,61.11
2023-10-09T11:39:35.793Z,61.12
2023-10-09T11:42:07.146Z,60.23
2023-10-09T11:44:40.610Z,60.03
2023-10-09T11:47:18.675Z,60.14
2023-10-09T11:50:02.863Z,59.37
2023-10-09T11:52:37.150Z,60.00
2023-10-09T11:55:16.038Z,59.41
2023-10-09T11:57:43.600Z,57.25
2023-10-09T12:00:30.079Z,58.60
2023-10-09T12:02:58.011Z,57.20
2023-10-09T12:05:29.323Z,57.46
2023-10-09T12:07:58.599Z,57.13
2023-10-09T12:10:26.973Z,57.61
2023-10-09T12:12:55.170Z,54.85
2023-10-09T12:15:22.590Z,53.46
2023-10-09T12:17:51.039Z,53.26
2023-10-09T12:20:33.817Z,53.95
2023-10-09T12:23:05.635Z,54.57
2023-10-09T12:25:34.630Z,54.15
2023-10-09T12:28:04.085Z,53.59
2023-10-09T12:30:32.498Z,52.57
2023-10-09T12:33:00.034Z,52.93
2023-10-09T12:35:29.274Z,53.47
2023-10-09T12:37:57.535Z,51.97
2023-10-09T12:40:32.255Z,51.92
2023-10-09T12:43:00.964Z,52.26
2023-10-09T12:45:33.297Z,51.08
2023-10-09T12:48:00.977Z,52.09
2023-10-09T12:50:29.115Z,51.60
2023-10-09T12:53:07.781Z,52.35
2023-10-09T12:55:45.401Z,51.92
2023-10-09T12:58:17.175Z,50.73
2023-10-09T13:00:50.716Z,51.52
2023-10-09T13:03:20.195Z,49.88
2023-10-09T13:05:59.562Z,48.40
2023-10-09T13:08:36.513Z,48.47
2023-10-09T13:11:12.195Z,48.35
2023-10-09T13:13:41.538Z,47.91
2023-10-09T13:16:14.206Z,47.02
2023-10-09T13:18:43.043Z,45.78
2023-10-09T13:21:10.454Z,45.37
2023-10-09T13:23:40.996Z,45.80
2023-10-09T13:26:31.405Z,45.26
2023-10-09T13:29:03.251Z,44.93
2023-10-09T13:31:35.792Z,45.26
2023-10-09T13:34:04.958Z,42.95
2023-10-09T13:36:34.976Z,38.36
2023-10-09T13:39:26.411Z,35.61
2023-10-09T13:42:00.233Z,32.82
2023-10-09T13:44:33.267Z,32.13
2023-10-09T13:47:03.218Z,32.61
2023-10-09T13:49:31.869Z,31.96
2023-10-09T13:52:02.319Z,31.97
2023-10-09T13:54:33.121Z,31.05
2023-10-09T13:57:01.613Z,29.88
2023-10-09T13:59:29.520Z,29.89
2023-10-09T14:01:57.633Z,30.27
2023-10-09T14:04:25.632Z,29.50
2023-10-09T14:06:58.304Z,27.83
2023-10-09T14:09:38.928Z,29.56
2023-10-09T14:12:07.993Z,29.32
2023-10-09T14:14:40.599Z,27.81
2023-10-09T14:17:14.570Z,27.36
2023-10-09T14:19:48.091Z,27.37
2023-10-09T14:22:17.315Z,27.87
2023-10-09T14:24:49.134Z,28.63
2023-10-09T14:27:20.801Z,27.62
2023-10-09T14:29:50.124Z,28.73
2023-10-09T14:32:17.747Z,27.03
2023-10-09T14:34:51.653Z,27.19
2023-10-09T14:37:20.495Z,28.31
2023-10-09T14:39:51.450Z,28.22
2023-10-09T14:42:21.345Z,28.28
2023-10-09T14:44:49.072Z,30.08
2023-10-09T14:47:17.159Z,29.62
2023-10-09T14:49:48.694Z,30.06
2023-10-09T14:52:21.302Z,29.48
2023-10-09T14:54:51.602Z,28.83
2023-10-09T14:57:19.598Z,30.29
2023-10-09T14:59:47.438Z,29.45
2023-10-09T15:02:16.023Z,30.51
2023-10-09T15:04:43.507Z,29.94
2023-10-09T15:07:11.781Z,29.01
2023-10-09T15:09:42.408Z,30.14
2023-10-09T15:12:10.056Z,31.86
2023-10-09T15:14:38.299Z,32.82
2023-10-09T15:17:08.188Z,33.45
2023-10-09T15:19:35.949Z,31.41
2023-10-09T15:22:03.350Z,31.34
2023-10-09T15:24:31.188Z,32.15
2023-10-09T15:26:59.293Z,32.71
2023-10-09T15:29:32.866Z,32.02
2023-10-09T15:32:05.676Z,31.43
2023-10-09T15:34:36.618Z,32.44
2023-10-09T15:37:10.575Z,32.19
2023-10-09T15:39:38.218Z,32.93
2023-10-09T15:42:07.787Z,32.52
2023-10-09T15:44:38.129Z,30.69
2023-10-09T15:47:09.879Z,31.03
2023-10-09T15:49:44.981Z,32.94
2023-10-09T15:52:15.728Z,33.30
2023-10-09T15:54:44.577Z,33.66
2023-10-09T15:57:13.877Z,34.18
2023-10-09T15:59:41.590Z,36.04
2023-10-09T16:02:09.136Z,37.00
2023-10-09T16:04:39.132Z,39.63
2023-10-09T16:07:08.736Z,41.17
2023-10-09T16:09:39.054Z,43.55
2023-10-09T16:12:07.728Z,45.11
2023-10-09T16:14:35.806Z,46.65
2023-10-09T16:17:04.463Z,48.18
2023-10-09T16:19:34.266Z,49.57
2023-10-09T16:22:05.079Z,50.00
2023-10-09T16:24:39.409Z,51.44
2023-10-09T16:27:09.192Z,52.92
2023-10-09T16:29:36.812Z,56.42
2023-10-09T16:32:04.603Z,56.27
2023-10-09T16:34:33.496Z,58.42
2023-10-09T16:37:01.608Z,58.53
2023-10-09T16:39:35.968Z,60.18
2023-10-09T16:42:05.847Z,60.48
2023-10-09T16:44:37.905Z,63.63
2023-10-09T16:47:05.688Z,65.77
2023-10-09T16:49:33.570Z,67.82
2023-10-09T16:52:00.952Z,72.45
2023-10-09T16:54:28.320Z,70.69
2023-10-09T16:56:58.727Z,71.31
2023-10-09T16:59:26.063Z,73.07
2023-10-09T17:01:55.047Z,74.30
2023-10-09T17:04:24.316Z,72.55
2023-10-09T17:06:52.713Z,76.00
2023-10-09T17:09:21.195Z,77.10
2023-10-09T17:11:53.236Z,77.44
2023-10-09T17:14:30.127Z,78.73
2023-10-09T17:16:59.873Z,80.26
2023-10-09T17:19:27.832Z,80.90
2023-10-09T17:21:57.806Z,84.96
2023-10-09T17:24:25.616Z,83.15
2023-10-09T17:26:54.621Z,85.92
2023-10-09T17:29:22.137Z,84.37
2023-10-09T17:31:50.213Z,88.05
2023-10-09T17:34:18.997Z,90.35
2023-10-09T17:36:50.395Z,92.37
2023-10-09T17:39:25.962Z,91.90
2023-10-09T17:41:55.148Z,99.11
2023-10-09T17:44:22.965Z,100.00
2023-10-09T17:46:50.939Z,93.31
2023-10-09T17:49:18.898Z,90.01
2023-10-09T17:51:48.867Z,88.46
2023-10-09T17:54:16.557Z,94.74
2023-10-09T17:56:45.667Z,92.47
2023-10-09T17:59:13.351Z,94.27
2023-10-09T18:01:41.024Z,98.43
2023-10-09T18:04:08.477Z,96.98
2023-10-09T18:06:37.767Z,93.36
2023-10-09T18:09:16.661Z,92.81
2023-10-09T18:11:45.404Z,97.14
2023-10-09T18:14:15.904Z,96.96
2023-10-09T18:16:44.203Z,96.76
2023-10-09T18:19:15.405Z,96.41
2023-10-09T18:21:43.772Z,100.00
2023-10-09T18:24:15.394Z,100.00
2023-10-09T18:26:45.166Z,100.00
2023-10-09T18:29:16.220Z,100.00
2023-10-09T18:31:43.896Z,100.00
2023-10-09T18:34:11.377Z,100.00
2023-10-09T18:36:40.057Z,100.00
2023-10-09T18:39:09.512Z,100.00
2023-10-09T18:41:37.015Z,100.00
2023-10-09T18:44:10.880Z,100.00
2023-10-09T18:46:39.233Z,100.00
2023-10-09T18:49:06.690Z,100.00
2023-10-09T18:51:35.668Z,100.00
2023-10-09T18:54:06.915Z,100.00
2023-10-09T18:56:36.991Z,100.00
2023-10-09T18:59:08.882Z,100.00
2023-10-09T19:01:37.576Z,100.00
2023-10-09T19:04:11.042Z,100.00
2023-10-09T19:06:39.145Z,100.00
2023-10-09T19:09:07.257Z,100.00
2023-10-09T19:11:39.956Z,100.00
2023-10-09T19:14:10.314Z,100.00
2023-10-09T19:16:37.841Z,100.00
2023-10-09T19:19:09.477Z,100.00
2023-10-09T19:21:38.001Z,100.00
2023-10-09T19:24:14.449Z,100.00
2023-10-09T19:26:43.585Z,100.00
2023-10-09T19:29:12.301Z,100.00
2023-10-09T19:31:40.155Z,100.00
2023-10-09T19:34:10.437Z,100.00
2023-10-09T19:36:39.643Z,100.00
2023-10-09T19:39:07.003Z,100.00
2023-10-09T19:41:36.826Z,100.00
2023-10-09T19:44:05.853Z,100.00
2023-10-09T19:46:38.812Z,100.00
2023-10-09T19:49:07.064Z,100.00
2023-10-09T19:51:34.933Z,100.00
2023-10-09T19:54:02.452Z,100.00
2023-10-09T19:56:32.989Z,100.00
2023-10-09T19:59:01.268Z,100.00
2023-10-09T20:01:29.291Z,100.00
2023-10-09T20:03:56.626Z,100.00
2023-10-09T20:06:25.082Z,100.00
2023-10-09T20:08:54.966Z,100.00
2023-10-09T20:11:24.046Z,100.00
2023-10-09T20:13:51.900Z,100.00
2023-10-09T20:16:20.091Z,100.00
2023-10-09T20:18:47.732Z,100.00
2023-10-09T20:21:15.313Z,100.00
2023-10-09T20:23:43.067Z,100.00
2023-10-09T20:26:18.212Z,100.00
2023-10-09T20:28:47.515Z,100.00
2023-10-09T20:31:15.770Z,100.00
2023-10-09T20:33:48.331Z,100.00
2023-10-09T20:36:17.340Z,100.00
2023-10-09T20:38:48.683Z,100.00
2023-10-09T20:41:17.297Z,100.00
2023-10-09T20:43:44.955Z,100.00
2023-10-09T20:46:13.339Z,100.00
2023-10-09T20:48:45.622Z,100.00
2023-10-09T20:51:14.649Z,100.00
2023-10-09T20:53:42.200Z,100.00
2023-10-09T20:56:11.897Z,100.00
2023-10-09T20:58:44.224Z,100.00
2023-10-09T21:01:18.393Z,100.00
2023-10-09T21:03:51.399Z,100.00
2023-10-09T21:06:24.752Z,100.00
2023-10-09T21:08:52.633Z,100.00
2023-10-09T21:11:20.408Z,100.00
2023-10-09T21:13:47.982Z,100.00
2023-10-09T21:16:16.992Z,100.00
2023-10-09T21:18:46.712Z,100.00
2023-10-09T21:21:15.806Z,100.00
2023-10-09T21:23:45.082Z,100.00
2023-10-09T21:26:23.166Z,100.00
2023-10-09T21:28:52.859Z,100.00
2023-10-09T21:31:22.963Z,100.00
2023-10-09T21:33:51.542Z,100.00
2023-10-09T21:36:20.272Z,100.00
2023-10-09T21:38:47.975Z,100.00
2023-10-09T21:41:23.051Z,100.00
2023-10-09T21:43:55.229Z,100.00
2023-10-09T21:46:26.750Z,100.00
2023-10-09T21:48:54.583Z,100.00
2023-10-09T21:51:22.666Z,100.00
2023-10-09T21:53:51.725Z,100.00
2023-10-09T21:56:21.334Z,100.00
2023-10-09T21:58:49.578Z,100.00
2023-10-09T22:01:20.564Z,100.00
2023-10-09T22:03:49.893Z,100.00
2023-10-09T22:06:17.736Z,100.00
2023-10-09T22:08:45.912Z,100.00
2023-10-09T22:11:13.648Z,100.00
2023-10-09T22:13:41.300Z,100.00
2023-10-09T22:16:09.531Z,100.00
2023-10-09T22:18:43.014Z,100.00
2023-10-09T22:21:11.863Z,100.00
2023-10-09T22:23:47.192Z,100.00
2023-10-09T22:26:16.117Z,100.00
2023-10-09T22:28:47.167Z,100.00
2023-10-09T22:31:16.799Z,100.00
2023-10-09T22:33:50.324Z,100.00
2023-10-09T22:36:42.361Z,100.00
2023-10-09T22:39:22.693Z,100.00
2023-10-09T22:41:51.304Z,100.00
2023-10-09T22:44:22.820Z,100.00
2023-10-09T22:46:52.832Z,100.00
2023-10-09T22:49:20.641Z,100.00
2023-10-09T22:51:51.865Z,100.00
2023-10-09T22:54:35.830Z,100.00
2023-10-09T22:57:06.741Z,100.00
2023-10-09T22:59:45.420Z,100.00
2023-10-09T23:02:44.244Z,100.00
2023-10-09T23:05:14.180Z,100.00
2023-10-09T23:07:42.930Z,100.00
2023-10-09T23:10:17.070Z,100.00
2023-10-09T23:12:48.728Z,100.00
2023-10-09T23:15:34.153Z,100.00
2023-10-09T23:18:22.189Z,100.00
2023-10-09T23:20:51.803Z,100.00
2023-10-09T23:23:28.577Z,100.00
2023-10-09T23:26:06.615Z,100.00
2023-10-09T23:28:38.225Z,100.00
2023-10-09T23:31:24.752Z,100.00
2023-10-09T23:33:54.086Z,100.00
2023-10-09T23:36:27.398Z,100.00
2023-10-09T23:39:11.124Z,100.00
2023-10-09T23:41:40.594Z,100.00
2023-10-09T23:44:11.366Z,100.00
2023-10-09T23:46:39.203Z,100.00
2023-10-09T23:49:07.946Z,100.00
2023-10-09T23:51:40.249Z,100.00
2023-10-09T23:54:11.855Z,100.00
2023-10-09T23:56:59.049Z,100.00
2023-10-09T23:59:51.597Z,100.00
